sensor_id;sensor_type;location;lat;lon;timestamp;P1;durP1;ratioP1;P2;durP2;ratioP2
71290;SDS011;59073;51.994;4.448;2024-03-02T00:00:03;0.45;;;0.42;;
71290;SDS011;59073;51.994;4.448;2024-03-02T00:02:45;0.38;;;0.35;;
71290;SDS011;59073;51.994;4.448;2024-03-02T00:05:13;0.41;;;0.39;;
71290;SDS011;59073;51.994;4.448;2024-03-02T00:07:44;0.33;;;0.30;;
71290;SDS011;59073;51.994;4.448;2024-03-02T00:10:16;0.51;;;0.47;;
71290;SDS011;59073;51.994;4.448;2024-03-02T00:12:54;0.44;;;0.40;;
71290;SDS011;59073;51.994;4.448;2024-03-02T00:17:55;0.66;;;0.60;;
71290;SDS011;59073;51.994;4.448;2024-03-02T00:20:24;0.64;;;0.58;;
71290;SDS011;59073;51.994;4.448;2024-03-02T00:22:55;0.61;;;0.55;;
71290;SDS011;59073;51.994;4.448;2024-03-02T00:26:02;0.47;;;0.43;;
71290;SDS011;59073;51.994;4.448;2024-03-02T00:30:51;0.51;;;0.47;;
71290;SDS011;59073;51.994;4.448;2024-03-02T00:33:31;0.46;;;0.42;;
71290;SDS011;59073;51.994;4.448;2024-03-02T00:35:58;0.37;;;0.33;;
71290;SDS011;59073;51.994;4.448;2024-03-02T00:38:25;0.42;;;0.39;;
71290;SDS011;59073;51.994;4.448;2024-03-02T00:40:51;0.38;;;0.35;;
71290;SDS011;59073;51.994;4.448;2024-03-02T00:45:49;0.54;;;0.50;;
71290;SDS011;59073;51.994;4.448;2024-03-02T00:48:15;0.36;;;0.33;;
71290;SDS011;59073;51.994;4.448;2024-03-02T00:50:41;0.42;;;0.39;;
71290;SDS011;59073;51.994;4.448;2024-03-02T00:53:09;0.43;;;0.40;;
71290;SDS011;59073;51.994;4.448;2024-03-02T00:55:37;0.32;;;0.30;;
71290;SDS011;59073;51.994;4.448;2024-03-02T00:58:05;0.53;;;0.51;;
71290;SDS011;59073;51.994;4.448;2024-03-02T01:00:30;0.38;;;0.36;;
71290;SDS011;59073;51.994;4.448;2024-03-02T01:02:55;0.59;;;0.56;;
71290;SDS011;59073;51.994;4.448;2024-03-02T01:05:21;0.49;;;0.46;;
71290;SDS011;59073;51.994;4.448;2024-03-02T01:07:46;0.44;;;0.41;;
71290;SDS011;59073;51.994;4.448;2024-03-02T01:10:12;0.52;;;0.49;;
71290;SDS011;59073;51.994;4.448;2024-03-02T01:12:37;0.56;;;0.54;;
71290;SDS011;59073;51.994;4.448;2024-03-02T01:15:03;0.53;;;0.51;;
71290;SDS011;59073;51.994;4.448;2024-03-02T01:17:31;0.59;;;0.57;;
71290;SDS011;59073;51.994;4.448;2024-03-02T01:19:57;0.71;;;0.69;;
71290;SDS011;59073;51.994;4.448;2024-03-02T01:22:22;0.91;;;0.89;;
71290;SDS011;59073;51.994;4.448;2024-03-02T01:24:50;0.96;;;0.94;;
71290;SDS011;59073;51.994;4.448;2024-03-02T01:27:16;1.00;;;0.97;;
71290;SDS011;59073;51.994;4.448;2024-03-02T01:29:42;0.83;;;0.80;;
71290;SDS011;59073;51.994;4.448;2024-03-02T01:32:07;0.76;;;0.74;;
71290;SDS011;59073;51.994;4.448;2024-03-02T01:34:32;0.80;;;0.78;;
71290;SDS011;59073;51.994;4.448;2024-03-02T01:36:58;0.87;;;0.85;;
71290;SDS011;59073;51.994;4.448;2024-03-02T01:39:23;0.95;;;0.93;;
71290;SDS011;59073;51.994;4.448;2024-03-02T01:41:49;0.79;;;0.78;;
71290;SDS011;59073;51.994;4.448;2024-03-02T01:44:14;0.81;;;0.81;;
71290;SDS011;59073;51.994;4.448;2024-03-02T01:46:40;0.82;;;0.81;;
71290;SDS011;59073;51.994;4.448;2024-03-02T01:49:06;0.99;;;0.99;;
71290;SDS011;59073;51.994;4.448;2024-03-02T01:51:31;1.10;;;1.10;;
71290;SDS011;59073;51.994;4.448;2024-03-02T01:53:57;1.17;;;1.17;;
71290;SDS011;59073;51.994;4.448;2024-03-02T01:56:22;1.29;;;1.29;;
71290;SDS011;59073;51.994;4.448;2024-03-02T01:58:48;1.61;;;1.61;;
71290;SDS011;59073;51.994;4.448;2024-03-02T02:01:13;1.69;;;1.69;;
71290;SDS011;59073;51.994;4.448;2024-03-02T02:03:39;1.61;;;1.61;;
71290;SDS011;59073;51.994;4.448;2024-03-02T02:06:05;1.64;;;1.64;;
71290;SDS011;59073;51.994;4.448;2024-03-02T02:08:32;1.63;;;1.63;;
71290;SDS011;59073;51.994;4.448;2024-03-02T02:10:58;1.46;;;1.46;;
71290;SDS011;59073;51.994;4.448;2024-03-02T02:13:24;1.29;;;1.29;;
71290;SDS011;59073;51.994;4.448;2024-03-02T02:15:49;1.51;;;1.51;;
71290;SDS011;59073;51.994;4.448;2024-03-02T02:18:15;1.46;;;1.46;;
71290;SDS011;59073;51.994;4.448;2024-03-02T02:20:41;1.27;;;1.27;;
71290;SDS011;59073;51.994;4.448;2024-03-02T02:23:06;1.48;;;1.48;;
71290;SDS011;59073;51.994;4.448;2024-03-02T02:25:34;1.21;;;1.21;;
71290;SDS011;59073;51.994;4.448;2024-03-02T02:28:00;1.60;;;1.60;;
71290;SDS011;59073;51.994;4.448;2024-03-02T02:30:27;1.43;;;1.43;;
71290;SDS011;59073;51.994;4.448;2024-03-02T02:32:55;1.47;;;1.47;;
71290;SDS011;59073;51.994;4.448;2024-03-02T02:35:21;1.24;;;1.24;;
71290;SDS011;59073;51.994;4.448;2024-03-02T02:37:47;0.99;;;0.99;;
71290;SDS011;59073;51.994;4.448;2024-03-02T02:40:14;1.03;;;1.03;;
71290;SDS011;59073;51.994;4.448;2024-03-02T02:42:40;0.98;;;0.98;;
71290;SDS011;59073;51.994;4.448;2024-03-02T02:45:05;0.81;;;0.81;;
71290;SDS011;59073;51.994;4.448;2024-03-02T02:47:32;1.02;;;1.02;;
71290;SDS011;59073;51.994;4.448;2024-03-02T02:50:00;1.03;;;1.03;;
71290;SDS011;59073;51.994;4.448;2024-03-02T02:52:30;1.05;;;1.05;;
71290;SDS011;59073;51.994;4.448;2024-03-02T02:54:58;0.96;;;0.96;;
71290;SDS011;59073;51.994;4.448;2024-03-02T02:57:23;1.02;;;1.02;;
71290;SDS011;59073;51.994;4.448;2024-03-02T02:59:49;0.85;;;0.85;;
71290;SDS011;59073;51.994;4.448;2024-03-02T03:02:14;0.84;;;0.84;;
71290;SDS011;59073;51.994;4.448;2024-03-02T03:04:40;1.12;;;1.12;;
71290;SDS011;59073;51.994;4.448;2024-03-02T03:07:05;1.04;;;1.04;;
71290;SDS011;59073;51.994;4.448;2024-03-02T03:09:31;0.98;;;0.98;;
71290;SDS011;59073;51.994;4.448;2024-03-02T03:11:57;0.98;;;0.98;;
71290;SDS011;59073;51.994;4.448;2024-03-02T03:14:22;0.96;;;0.96;;
71290;SDS011;59073;51.994;4.448;2024-03-02T03:16:48;1.05;;;1.05;;
71290;SDS011;59073;51.994;4.448;2024-03-02T03:19:13;0.94;;;0.94;;
71290;SDS011;59073;51.994;4.448;2024-03-02T03:21:39;0.88;;;0.87;;
71290;SDS011;59073;51.994;4.448;2024-03-02T03:24:04;1.04;;;1.04;;
71290;SDS011;59073;51.994;4.448;2024-03-02T03:26:30;1.11;;;1.11;;
71290;SDS011;59073;51.994;4.448;2024-03-02T03:28:55;1.11;;;1.11;;
71290;SDS011;59073;51.994;4.448;2024-03-02T03:31:21;1.00;;;1.00;;
71290;SDS011;59073;51.994;4.448;2024-03-02T03:33:46;1.20;;;1.20;;
71290;SDS011;59073;51.994;4.448;2024-03-02T03:36:11;1.05;;;1.05;;
71290;SDS011;59073;51.994;4.448;2024-03-02T03:38:37;1.26;;;1.26;;
71290;SDS011;59073;51.994;4.448;2024-03-02T03:41:02;1.33;;;1.33;;
71290;SDS011;59073;51.994;4.448;2024-03-02T03:43:28;1.21;;;1.21;;
71290;SDS011;59073;51.994;4.448;2024-03-02T03:45:54;0.96;;;0.96;;
71290;SDS011;59073;51.994;4.448;2024-03-02T03:48:19;1.15;;;1.15;;
71290;SDS011;59073;51.994;4.448;2024-03-02T03:50:45;1.14;;;1.14;;
71290;SDS011;59073;51.994;4.448;2024-03-02T03:53:11;1.02;;;1.02;;
71290;SDS011;59073;51.994;4.448;2024-03-02T03:55:36;1.20;;;1.20;;
71290;SDS011;59073;51.994;4.448;2024-03-02T03:58:02;1.12;;;1.12;;
71290;SDS011;59073;51.994;4.448;2024-03-02T04:00:27;1.12;;;1.12;;
71290;SDS011;59073;51.994;4.448;2024-03-02T04:02:53;1.22;;;1.22;;
71290;SDS011;59073;51.994;4.448;2024-03-02T04:05:18;1.13;;;1.13;;
71290;SDS011;59073;51.994;4.448;2024-03-02T04:07:43;0.81;;;0.81;;
71290;SDS011;59073;51.994;4.448;2024-03-02T04:10:09;0.89;;;0.89;;
71290;SDS011;59073;51.994;4.448;2024-03-02T04:12:36;1.19;;;1.19;;
71290;SDS011;59073;51.994;4.448;2024-03-02T04:15:03;1.00;;;1.00;;
71290;SDS011;59073;51.994;4.448;2024-03-02T04:17:31;0.91;;;0.91;;
71290;SDS011;59073;51.994;4.448;2024-03-02T04:19:58;0.96;;;0.96;;
71290;SDS011;59073;51.994;4.448;2024-03-02T04:22:24;1.04;;;1.04;;
71290;SDS011;59073;51.994;4.448;2024-03-02T04:24:50;0.87;;;0.87;;
71290;SDS011;59073;51.994;4.448;2024-03-02T04:27:16;0.95;;;0.95;;
71290;SDS011;59073;51.994;4.448;2024-03-02T04:29:41;0.96;;;0.96;;
71290;SDS011;59073;51.994;4.448;2024-03-02T04:32:07;0.86;;;0.86;;
71290;SDS011;59073;51.994;4.448;2024-03-02T04:34:32;0.86;;;0.86;;
71290;SDS011;59073;51.994;4.448;2024-03-02T04:36:57;0.85;;;0.85;;
71290;SDS011;59073;51.994;4.448;2024-03-02T04:39:23;0.78;;;0.78;;
71290;SDS011;59073;51.994;4.448;2024-03-02T04:41:49;0.88;;;0.88;;
71290;SDS011;59073;51.994;4.448;2024-03-02T04:44:15;0.74;;;0.74;;
71290;SDS011;59073;51.994;4.448;2024-03-02T04:46:40;1.13;;;1.13;;
71290;SDS011;59073;51.994;4.448;2024-03-02T04:49:06;0.94;;;0.94;;
71290;SDS011;59073;51.994;4.448;2024-03-02T04:51:31;1.00;;;1.00;;
71290;SDS011;59073;51.994;4.448;2024-03-02T04:53:57;0.92;;;0.92;;
71290;SDS011;59073;51.994;4.448;2024-03-02T04:56:22;0.86;;;0.85;;
71290;SDS011;59073;51.994;4.448;2024-03-02T04:58:48;0.98;;;0.98;;
71290;SDS011;59073;51.994;4.448;2024-03-02T05:01:13;0.93;;;0.93;;
71290;SDS011;59073;51.994;4.448;2024-03-02T05:03:39;0.79;;;0.78;;
71290;SDS011;59073;51.994;4.448;2024-03-02T05:06:04;0.83;;;0.82;;
71290;SDS011;59073;51.994;4.448;2024-03-02T05:08:29;0.79;;;0.78;;
71290;SDS011;59073;51.994;4.448;2024-03-02T05:10:55;0.92;;;0.91;;
71290;SDS011;59073;51.994;4.448;2024-03-02T05:13:40;0.77;;;0.76;;
71290;SDS011;59073;51.994;4.448;2024-03-02T05:16:06;0.73;;;0.71;;
71290;SDS011;59073;51.994;4.448;2024-03-02T05:18:31;0.74;;;0.73;;
71290;SDS011;59073;51.994;4.448;2024-03-02T05:20:56;0.60;;;0.59;;
71290;SDS011;59073;51.994;4.448;2024-03-02T05:23:22;0.65;;;0.63;;
71290;SDS011;59073;51.994;4.448;2024-03-02T05:25:47;0.64;;;0.62;;
71290;SDS011;59073;51.994;4.448;2024-03-02T05:28:13;0.70;;;0.68;;
71290;SDS011;59073;51.994;4.448;2024-03-02T05:30:38;0.64;;;0.61;;
71290;SDS011;59073;51.994;4.448;2024-03-02T05:33:04;0.73;;;0.70;;
71290;SDS011;59073;51.994;4.448;2024-03-02T05:35:29;0.79;;;0.75;;
71290;SDS011;59073;51.994;4.448;2024-03-02T05:37:55;0.78;;;0.74;;
71290;SDS011;59073;51.994;4.448;2024-03-02T05:40:20;0.62;;;0.59;;
71290;SDS011;59073;51.994;4.448;2024-03-02T05:42:46;0.70;;;0.66;;
71290;SDS011;59073;51.994;4.448;2024-03-02T05:45:12;0.68;;;0.64;;
71290;SDS011;59073;51.994;4.448;2024-03-02T05:47:37;1.05;;;0.99;;
71290;SDS011;59073;51.994;4.448;2024-03-02T05:50:03;0.90;;;0.84;;
71290;SDS011;59073;51.994;4.448;2024-03-02T05:52:29;1.04;;;0.95;;
71290;SDS011;59073;51.994;4.448;2024-03-02T05:54:54;0.90;;;0.83;;
71290;SDS011;59073;51.994;4.448;2024-03-02T05:57:20;1.04;;;0.96;;
71290;SDS011;59073;51.994;4.448;2024-03-02T06:00:04;0.79;;;0.73;;
71290;SDS011;59073;51.994;4.448;2024-03-02T06:02:33;0.82;;;0.76;;
71290;SDS011;59073;51.994;4.448;2024-03-02T06:05:00;0.85;;;0.79;;
71290;SDS011;59073;51.994;4.448;2024-03-02T06:07:25;0.81;;;0.76;;
71290;SDS011;59073;51.994;4.448;2024-03-02T06:09:51;0.91;;;0.85;;
71290;SDS011;59073;51.994;4.448;2024-03-02T06:12:17;0.81;;;0.75;;
71290;SDS011;59073;51.994;4.448;2024-03-02T06:14:43;0.87;;;0.80;;
71290;SDS011;59073;51.994;4.448;2024-03-02T06:17:09;0.65;;;0.60;;
71290;SDS011;59073;51.994;4.448;2024-03-02T06:19:34;0.83;;;0.76;;
71290;SDS011;59073;51.994;4.448;2024-03-02T06:22:00;0.96;;;0.89;;
71290;SDS011;59073;51.994;4.448;2024-03-02T06:24:26;0.83;;;0.77;;
71290;SDS011;59073;51.994;4.448;2024-03-02T06:26:51;1.02;;;0.94;;
71290;SDS011;59073;51.994;4.448;2024-03-02T06:29:17;1.05;;;0.95;;
71290;SDS011;59073;51.994;4.448;2024-03-02T06:31:42;1.15;;;1.03;;
71290;SDS011;59073;51.994;4.448;2024-03-02T06:34:08;1.01;;;0.89;;
71290;SDS011;59073;51.994;4.448;2024-03-02T06:36:33;0.94;;;0.82;;
71290;SDS011;59073;51.994;4.448;2024-03-02T06:38:59;1.01;;;0.88;;
71290;SDS011;59073;51.994;4.448;2024-03-02T06:41:25;1.05;;;0.92;;
71290;SDS011;59073;51.994;4.448;2024-03-02T06:43:51;1.11;;;0.97;;
71290;SDS011;59073;51.994;4.448;2024-03-02T06:46:24;0.94;;;0.83;;
71290;SDS011;59073;51.994;4.448;2024-03-02T06:48:52;0.99;;;0.88;;
71290;SDS011;59073;51.994;4.448;2024-03-02T06:51:18;1.33;;;1.17;;
71290;SDS011;59073;51.994;4.448;2024-03-02T06:53:43;1.11;;;0.98;;
71290;SDS011;59073;51.994;4.448;2024-03-02T06:56:09;1.20;;;1.05;;
71290;SDS011;59073;51.994;4.448;2024-03-02T06:58:34;1.15;;;1.00;;
71290;SDS011;59073;51.994;4.448;2024-03-02T07:00:59;0.92;;;0.81;;
71290;SDS011;59073;51.994;4.448;2024-03-02T07:03:27;1.11;;;0.97;;
71290;SDS011;59073;51.994;4.448;2024-03-02T07:05:53;1.16;;;1.02;;
71290;SDS011;59073;51.994;4.448;2024-03-02T07:08:19;1.15;;;1.01;;
71290;SDS011;59073;51.994;4.448;2024-03-02T07:10:44;1.25;;;1.10;;
71290;SDS011;59073;51.994;4.448;2024-03-02T07:13:10;1.16;;;1.01;;
71290;SDS011;59073;51.994;4.448;2024-03-02T07:15:35;1.07;;;0.94;;
71290;SDS011;59073;51.994;4.448;2024-03-02T07:18:19;0.87;;;0.77;;
71290;SDS011;59073;51.994;4.448;2024-03-02T07:20:44;1.22;;;1.08;;
71290;SDS011;59073;51.994;4.448;2024-03-02T07:23:10;1.15;;;1.01;;
71290;SDS011;59073;51.994;4.448;2024-03-02T07:25:35;1.00;;;0.88;;
71290;SDS011;59073;51.994;4.448;2024-03-02T07:28:01;1.06;;;0.94;;
71290;SDS011;59073;51.994;4.448;2024-03-02T07:30:26;0.94;;;0.83;;
71290;SDS011;59073;51.994;4.448;2024-03-02T07:32:52;0.95;;;0.85;;
71290;SDS011;59073;51.994;4.448;2024-03-02T07:35:17;1.49;;;1.34;;
71290;SDS011;59073;51.994;4.448;2024-03-02T07:37:43;1.16;;;1.03;;
71290;SDS011;59073;51.994;4.448;2024-03-02T07:40:09;1.12;;;1.02;;
71290;SDS011;59073;51.994;4.448;2024-03-02T07:42:39;1.08;;;0.99;;
71290;SDS011;59073;51.994;4.448;2024-03-02T07:45:06;0.82;;;0.75;;
71290;SDS011;59073;51.994;4.448;2024-03-02T07:47:35;0.98;;;0.91;;
71290;SDS011;59073;51.994;4.448;2024-03-02T07:50:00;1.04;;;0.97;;
71290;SDS011;59073;51.994;4.448;2024-03-02T07:52:26;0.83;;;0.76;;
71290;SDS011;59073;51.994;4.448;2024-03-02T07:54:51;1.04;;;0.95;;
71290;SDS011;59073;51.994;4.448;2024-03-02T07:57:17;0.94;;;0.85;;
71290;SDS011;59073;51.994;4.448;2024-03-02T07:59:42;1.04;;;0.93;;
71290;SDS011;59073;51.994;4.448;2024-03-02T08:02:08;1.13;;;1.00;;
71290;SDS011;59073;51.994;4.448;2024-03-02T08:04:33;1.14;;;1.00;;
71290;SDS011;59073;51.994;4.448;2024-03-02T08:06:59;1.26;;;1.09;;
71290;SDS011;59073;51.994;4.448;2024-03-02T08:09:25;1.05;;;0.92;;
71290;SDS011;59073;51.994;4.448;2024-03-02T08:11:51;1.02;;;0.88;;
71290;SDS011;59073;51.994;4.448;2024-03-02T08:14:16;1.01;;;0.87;;
71290;SDS011;59073;51.994;4.448;2024-03-02T08:16:41;1.14;;;0.99;;
71290;SDS011;59073;51.994;4.448;2024-03-02T08:19:07;1.09;;;0.96;;
71290;SDS011;59073;51.994;4.448;2024-03-02T08:21:34;1.18;;;1.03;;
71290;SDS011;59073;51.994;4.448;2024-03-02T08:24:00;1.20;;;1.03;;
71290;SDS011;59073;51.994;4.448;2024-03-02T08:26:27;1.17;;;1.01;;
71290;SDS011;59073;51.994;4.448;2024-03-02T08:28:59;1.11;;;0.96;;
71290;SDS011;59073;51.994;4.448;2024-03-02T08:31:27;1.16;;;1.00;;
71290;SDS011;59073;51.994;4.448;2024-03-02T08:33:52;1.19;;;1.03;;
71290;SDS011;59073;51.994;4.448;2024-03-02T08:36:18;1.57;;;1.31;;
71290;SDS011;59073;51.994;4.448;2024-03-02T08:38:44;1.34;;;1.09;;
71290;SDS011;59073;51.994;4.448;2024-03-02T08:41:10;1.14;;;0.95;;
71290;SDS011;59073;51.994;4.448;2024-03-02T08:43:38;1.24;;;1.04;;
71290;SDS011;59073;51.994;4.448;2024-03-02T08:46:05;1.11;;;0.93;;
71290;SDS011;59073;51.994;4.448;2024-03-02T08:48:31;1.33;;;1.11;;
71290;SDS011;59073;51.994;4.448;2024-03-02T08:50:56;1.59;;;1.31;;
71290;SDS011;59073;51.994;4.448;2024-03-02T08:53:22;1.61;;;1.31;;
71290;SDS011;59073;51.994;4.448;2024-03-02T08:55:47;1.91;;;1.54;;
71290;SDS011;59073;51.994;4.448;2024-03-02T08:58:13;1.54;;;1.25;;
71290;SDS011;59073;51.994;4.448;2024-03-02T09:00:38;1.25;;;1.03;;
71290;SDS011;59073;51.994;4.448;2024-03-02T09:03:04;1.33;;;1.10;;
71290;SDS011;59073;51.994;4.448;2024-03-02T09:05:29;1.28;;;1.05;;
71290;SDS011;59073;51.994;4.448;2024-03-02T09:07:55;1.11;;;0.92;;
71290;SDS011;59073;51.994;4.448;2024-03-02T09:10:20;1.07;;;0.89;;
71290;SDS011;59073;51.994;4.448;2024-03-02T09:12:46;1.20;;;1.00;;
71290;SDS011;59073;51.994;4.448;2024-03-02T09:15:11;1.23;;;1.03;;
71290;SDS011;59073;51.994;4.448;2024-03-02T09:17:37;1.44;;;1.20;;
71290;SDS011;59073;51.994;4.448;2024-03-02T09:20:03;1.62;;;1.32;;
71290;SDS011;59073;51.994;4.448;2024-03-02T09:22:29;1.63;;;1.34;;
71290;SDS011;59073;51.994;4.448;2024-03-02T09:24:55;1.12;;;0.92;;
71290;SDS011;59073;51.994;4.448;2024-03-02T09:27:21;1.29;;;1.06;;
71290;SDS011;59073;51.994;4.448;2024-03-02T09:29:47;1.25;;;1.02;;
71290;SDS011;59073;51.994;4.448;2024-03-02T09:32:13;1.23;;;0.98;;
71290;SDS011;59073;51.994;4.448;2024-03-02T09:34:39;1.65;;;1.30;;
71290;SDS011;59073;51.994;4.448;2024-03-02T09:37:05;1.51;;;1.15;;
71290;SDS011;59073;51.994;4.448;2024-03-02T09:39:31;1.64;;;1.24;;
71290;SDS011;59073;51.994;4.448;2024-03-02T09:42:00;1.55;;;1.15;;
71290;SDS011;59073;51.994;4.448;2024-03-02T09:44:25;1.76;;;1.29;;
71290;SDS011;59073;51.994;4.448;2024-03-02T09:46:51;1.88;;;1.37;;
71290;SDS011;59073;51.994;4.448;2024-03-02T09:49:17;1.94;;;1.40;;
71290;SDS011;59073;51.994;4.448;2024-03-02T09:51:46;1.59;;;1.15;;
71290;SDS011;59073;51.994;4.448;2024-03-02T09:54:14;1.65;;;1.20;;
71290;SDS011;59073;51.994;4.448;2024-03-02T09:56:41;1.40;;;1.03;;
71290;SDS011;59073;51.994;4.448;2024-03-02T09:59:07;1.43;;;1.06;;
71290;SDS011;59073;51.994;4.448;2024-03-02T10:01:33;1.28;;;0.97;;
71290;SDS011;59073;51.994;4.448;2024-03-02T10:03:59;1.77;;;1.34;;
71290;SDS011;59073;51.994;4.448;2024-03-02T10:06:26;1.43;;;1.07;;
71290;SDS011;59073;51.994;4.448;2024-03-02T10:08:52;1.48;;;1.12;;
71290;SDS011;59073;51.994;4.448;2024-03-02T10:11:26;1.42;;;1.06;;
71290;SDS011;59073;51.994;4.448;2024-03-02T10:14:09;1.25;;;0.93;;
71290;SDS011;59073;51.994;4.448;2024-03-02T10:16:36;1.80;;;1.33;;
71290;SDS011;59073;51.994;4.448;2024-03-02T10:19:15;1.87;;;1.39;;
71290;SDS011;59073;51.994;4.448;2024-03-02T10:21:43;1.46;;;1.11;;
71290;SDS011;59073;51.994;4.448;2024-03-02T10:24:12;1.67;;;1.26;;
71290;SDS011;59073;51.994;4.448;2024-03-02T10:26:38;1.55;;;1.17;;
71290;SDS011;59073;51.994;4.448;2024-03-02T10:29:04;1.72;;;1.29;;
71290;SDS011;59073;51.994;4.448;2024-03-02T10:31:29;2.36;;;1.75;;
71290;SDS011;59073;51.994;4.448;2024-03-02T10:33:55;2.01;;;1.49;;
71290;SDS011;59073;51.994;4.448;2024-03-02T10:36:22;1.95;;;1.48;;
71290;SDS011;59073;51.994;4.448;2024-03-02T10:38:48;1.59;;;1.21;;
71290;SDS011;59073;51.994;4.448;2024-03-02T10:41:17;1.61;;;1.21;;
71290;SDS011;59073;51.994;4.448;2024-03-02T10:43:43;1.60;;;1.19;;
71290;SDS011;59073;51.994;4.448;2024-03-02T10:46:11;1.69;;;1.25;;
71290;SDS011;59073;51.994;4.448;2024-03-02T10:48:39;1.83;;;1.36;;
71290;SDS011;59073;51.994;4.448;2024-03-02T10:51:06;1.91;;;1.41;;
71290;SDS011;59073;51.994;4.448;2024-03-02T10:53:32;2.23;;;1.62;;
71290;SDS011;59073;51.994;4.448;2024-03-02T10:55:57;2.34;;;1.67;;
71290;SDS011;59073;51.994;4.448;2024-03-02T10:58:31;1.97;;;1.40;;
71290;SDS011;59073;51.994;4.448;2024-03-02T11:01:03;1.99;;;1.41;;
71290;SDS011;59073;51.994;4.448;2024-03-02T11:03:33;2.32;;;1.66;;
71290;SDS011;59073;51.994;4.448;2024-03-02T11:06:06;2.13;;;1.56;;
71290;SDS011;59073;51.994;4.448;2024-03-02T11:08:33;1.96;;;1.43;;
71290;SDS011;59073;51.994;4.448;2024-03-02T11:11:07;1.60;;;1.16;;
71290;SDS011;59073;51.994;4.448;2024-03-02T11:13:40;2.02;;;1.44;;
71290;SDS011;59073;51.994;4.448;2024-03-02T11:19:02;1.89;;;1.36;;
71290;SDS011;59073;51.994;4.448;2024-03-02T11:21:35;1.39;;;1.00;;
71290;SDS011;59073;51.994;4.448;2024-03-02T11:24:34;1.76;;;1.26;;
71290;SDS011;59073;51.994;4.448;2024-03-02T11:26:57;1.90;;;1.37;;
71290;SDS011;59073;51.994;4.448;2024-03-02T11:32:04;1.47;;;1.08;;
71290;SDS011;59073;51.994;4.448;2024-03-02T11:34:34;1.69;;;1.25;;
71290;SDS011;59073;51.994;4.448;2024-03-02T11:37:01;1.73;;;1.27;;
71290;SDS011;59073;51.994;4.448;2024-03-02T11:39:28;1.87;;;1.39;;
71290;SDS011;59073;51.994;4.448;2024-03-02T11:41:57;1.47;;;1.10;;
71290;SDS011;59073;51.994;4.448;2024-03-02T11:44:26;1.82;;;1.35;;
71290;SDS011;59073;51.994;4.448;2024-03-02T11:47:02;1.63;;;1.21;;
71290;SDS011;59073;51.994;4.448;2024-03-02T11:49:38;1.41;;;1.05;;
71290;SDS011;59073;51.994;4.448;2024-03-02T11:52:04;1.74;;;1.29;;
71290;SDS011;59073;51.994;4.448;2024-03-02T11:54:35;1.23;;;0.91;;
71290;SDS011;59073;51.994;4.448;2024-03-02T11:57:05;1.56;;;1.16;;
71290;SDS011;59073;51.994;4.448;2024-03-02T11:59:34;1.64;;;1.21;;
71290;SDS011;59073;51.994;4.448;2024-03-02T12:02:00;1.41;;;1.05;;
71290;SDS011;59073;51.994;4.448;2024-03-02T12:04:25;1.39;;;1.02;;
71290;SDS011;59073;51.994;4.448;2024-03-02T12:06:58;1.55;;;1.15;;
71290;SDS011;59073;51.994;4.448;2024-03-02T12:09:26;1.84;;;1.36;;
71290;SDS011;59073;51.994;4.448;2024-03-02T12:12:08;1.44;;;1.05;;
71290;SDS011;59073;51.994;4.448;2024-03-02T12:14:35;1.72;;;1.25;;
71290;SDS011;59073;51.994;4.448;2024-03-02T12:17:02;1.79;;;1.33;;
71290;SDS011;59073;51.994;4.448;2024-03-02T12:19:29;1.95;;;1.43;;
71290;SDS011;59073;51.994;4.448;2024-03-02T12:21:56;1.18;;;0.87;;
71290;SDS011;59073;51.994;4.448;2024-03-02T12:24:23;1.30;;;0.97;;
71290;SDS011;59073;51.994;4.448;2024-03-02T12:26:50;1.47;;;1.09;;
71290;SDS011;59073;51.994;4.448;2024-03-02T12:29:16;1.63;;;1.19;;
71290;SDS011;59073;51.994;4.448;2024-03-02T12:31:44;1.66;;;1.21;;
71290;SDS011;59073;51.994;4.448;2024-03-02T12:34:13;1.96;;;1.42;;
71290;SDS011;59073;51.994;4.448;2024-03-02T12:36:39;1.94;;;1.37;;
71290;SDS011;59073;51.994;4.448;2024-03-02T12:39:07;2.03;;;1.44;;
71290;SDS011;59073;51.994;4.448;2024-03-02T12:41:35;2.01;;;1.43;;
71290;SDS011;59073;51.994;4.448;2024-03-02T12:44:03;2.14;;;1.50;;
71290;SDS011;59073;51.994;4.448;2024-03-02T12:46:29;1.91;;;1.32;;
71290;SDS011;59073;51.994;4.448;2024-03-02T12:48:55;1.67;;;1.14;;
71290;SDS011;59073;51.994;4.448;2024-03-02T12:51:20;2.18;;;1.48;;
71290;SDS011;59073;51.994;4.448;2024-03-02T12:53:52;2.39;;;1.61;;
71290;SDS011;59073;51.994;4.448;2024-03-02T12:56:19;2.59;;;1.76;;
71290;SDS011;59073;51.994;4.448;2024-03-02T12:58:45;2.19;;;1.51;;
71290;SDS011;59073;51.994;4.448;2024-03-02T13:01:10;1.32;;;0.93;;
71290;SDS011;59073;51.994;4.448;2024-03-02T13:03:39;1.81;;;1.28;;
71290;SDS011;59073;51.994;4.448;2024-03-02T13:06:05;2.21;;;1.54;;
71290;SDS011;59073;51.994;4.448;2024-03-02T13:08:33;1.90;;;1.32;;
71290;SDS011;59073;51.994;4.448;2024-03-02T13:10:59;1.61;;;1.15;;
71290;SDS011;59073;51.994;4.448;2024-03-02T13:13:24;2.00;;;1.43;;
71290;SDS011;59073;51.994;4.448;2024-03-02T13:15:50;1.55;;;1.12;;
71290;SDS011;59073;51.994;4.448;2024-03-02T13:18:19;1.34;;;0.98;;
71290;SDS011;59073;51.994;4.448;2024-03-02T13:20:44;1.65;;;1.21;;
71290;SDS011;59073;51.994;4.448;2024-03-02T13:23:10;1.84;;;1.31;;
71290;SDS011;59073;51.994;4.448;2024-03-02T13:25:35;1.98;;;1.40;;
71290;SDS011;59073;51.994;4.448;2024-03-02T13:28:01;1.85;;;1.30;;
71290;SDS011;59073;51.994;4.448;2024-03-02T13:30:27;1.47;;;1.04;;
71290;SDS011;59073;51.994;4.448;2024-03-02T13:32:53;1.44;;;1.02;;
71290;SDS011;59073;51.994;4.448;2024-03-02T13:35:19;1.98;;;1.40;;
71290;SDS011;59073;51.994;4.448;2024-03-02T13:37:44;1.58;;;1.12;;
71290;SDS011;59073;51.994;4.448;2024-03-02T13:40:09;1.45;;;1.03;;
71290;SDS011;59073;51.994;4.448;2024-03-02T13:42:41;1.87;;;1.36;;
71290;SDS011;59073;51.994;4.448;2024-03-02T13:45:06;1.43;;;1.05;;
71290;SDS011;59073;51.994;4.448;2024-03-02T13:47:32;1.53;;;1.13;;
71290;SDS011;59073;51.994;4.448;2024-03-02T13:49:58;1.71;;;1.24;;
71290;SDS011;59073;51.994;4.448;2024-03-02T13:52:23;1.61;;;1.16;;
71290;SDS011;59073;51.994;4.448;2024-03-02T13:54:50;1.40;;;0.98;;
71290;SDS011;59073;51.994;4.448;2024-03-02T13:57:17;1.73;;;1.21;;
71290;SDS011;59073;51.994;4.448;2024-03-02T13:59:45;1.36;;;0.95;;
71290;SDS011;59073;51.994;4.448;2024-03-02T14:02:11;1.32;;;0.93;;
71290;SDS011;59073;51.994;4.448;2024-03-02T14:04:37;1.50;;;1.07;;
71290;SDS011;59073;51.994;4.448;2024-03-02T14:07:04;1.33;;;0.96;;
71290;SDS011;59073;51.994;4.448;2024-03-02T14:09:32;1.49;;;1.09;;
71290;SDS011;59073;51.994;4.448;2024-03-02T14:11:58;1.56;;;1.14;;
71290;SDS011;59073;51.994;4.448;2024-03-02T14:14:25;1.56;;;1.16;;
71290;SDS011;59073;51.994;4.448;2024-03-02T14:16:52;1.50;;;1.11;;
71290;SDS011;59073;51.994;4.448;2024-03-02T14:19:19;1.57;;;1.17;;
71290;SDS011;59073;51.994;4.448;2024-03-02T14:21:46;1.51;;;1.14;;
71290;SDS011;59073;51.994;4.448;2024-03-02T14:24:12;1.61;;;1.21;;
71290;SDS011;59073;51.994;4.448;2024-03-02T14:26:38;0.90;;;0.68;;
71290;SDS011;59073;51.994;4.448;2024-03-02T14:29:04;1.29;;;0.96;;
71290;SDS011;59073;51.994;4.448;2024-03-02T14:31:30;1.64;;;1.20;;
71290;SDS011;59073;51.994;4.448;2024-03-02T14:33:56;1.29;;;0.95;;
71290;SDS011;59073;51.994;4.448;2024-03-02T14:36:22;1.37;;;1.01;;
71290;SDS011;59073;51.994;4.448;2024-03-02T14:38:48;1.96;;;1.42;;
71290;SDS011;59073;51.994;4.448;2024-03-02T14:41:14;0.82;;;0.61;;
71290;SDS011;59073;51.994;4.448;2024-03-02T14:43:40;1.38;;;1.01;;
71290;SDS011;59073;51.994;4.448;2024-03-02T14:46:06;1.04;;;0.78;;
71290;SDS011;59073;51.994;4.448;2024-03-02T14:48:37;1.25;;;0.95;;
71290;SDS011;59073;51.994;4.448;2024-03-02T14:51:04;1.21;;;0.92;;
71290;SDS011;59073;51.994;4.448;2024-03-02T14:53:30;1.49;;;1.13;;
71290;SDS011;59073;51.994;4.448;2024-03-02T14:55:55;1.50;;;1.14;;
71290;SDS011;59073;51.994;4.448;2024-03-02T14:58:21;1.21;;;0.93;;